sensor_id;sensor_type;location;lat;lon;timestamp;temperature;humidity
4429;DHT22;2227;47.810;8.810;2023-02-03T04:48:46;5.30;99.90
4429;DHT22;2227;47.810;8.810;2023-02-03T04:51:13;5.30;99.90
4429;DHT22;2227;47.810;8.810;2023-02-03T04:53:40;5.20;99.90
4429;DHT22;2227;47.810;8.810;2023-02-03T04:56:06;5.30;99.90
4429;DHT22;2227;47.810;8.810;2023-02-03T04:58:34;5.30;99.90
4429;DHT22;2227;47.810;8.810;2023-02-03T05:01:06;5.30;99.90
4429;DHT22;2227;47.810;8.810;2023-02-03T05:03:34;5.40;99.90
4429;DHT22;2227;47.810;8.810;2023-02-03T05:06:01;5.40;99.90
4429;DHT22;2227;47.810;8.810;2023-02-03T05:08:29;5.40;99.90
4429;DHT22;2227;47.810;8.810;2023-02-03T05:10:56;5.40;99.90
4429;DHT22;2227;47.810;8.810;2023-02-03T05:13:23;5.40;99.90
4429;DHT22;2227;47.810;8.810;2023-02-03T05:15:50;5.40;99.90
4429;DHT22;2227;47.810;8.810;2023-02-03T05:18:17;5.40;99.90
4429;DHT22;2227;47.810;8.810;2023-02-03T05:20:43;5.40;99.90
4429;DHT22;2227;47.810;8.810;2023-02-03T05:23:10;5.40;99.90
4429;DHT22;2227;47.810;8.810;2023-02-03T05:25:37;5.50;99.90
4429;DHT22;2227;47.810;8.810;2023-02-03T05:28:03;5.60;99.90
4429;DHT22;2227;47.810;8.810;2023-02-03T05:30:30;5.60;99.90
4429;DHT22;2227;47.810;8.810;2023-02-03T05:32:57;5.60;99.90
4429;DHT22;2227;47.810;8.810;2023-02-03T05:35:23;5.50;99.90
4429;DHT22;2227;47.810;8.810;2023-02-03T05:37:50;5.50;99.90
4429;DHT22;2227;47.810;8.810;2023-02-03T05:40:17;5.50;99.90
4429;DHT22;2227;47.810;8.810;2023-02-03T05:43:02;5.50;99.90
4429;DHT22;2227;47.810;8.810;2023-02-03T05:45:28;5.50;99.90
4429;DHT22;2227;47.810;8.810;2023-02-03T05:47:55;5.40;99.90
4429;DHT22;2227;47.810;8.810;2023-02-03T05:50:22;5.50;99.90
4429;DHT22;2227;47.810;8.810;2023-02-03T05:52:49;5.60;99.90
4429;DHT22;2227;47.810;8.810;2023-02-03T05:55:15;5.70;99.90
4429;DHT22;2227;47.810;8.810;2023-02-03T05:57:42;5.80;99.90
4429;DHT22;2227;47.810;8.810;2023-02-03T06:00:09;5.70;99.90
4429;DHT22;2227;47.810;8.810;2023-02-03T06:02:36;5.70;99.90
4429;DHT22;2227;47.810;8.810;2023-02-03T06:05:03;5.80;99.90
4429;DHT22;2227;47.810;8.810;2023-02-03T06:07:29;5.80;99.90
4429;DHT22;2227;47.810;8.810;2023-02-03T06:09:56;6.20;99.90
4429;DHT22;2227;47.810;8.810;2023-02-03T06:12:23;5.80;99.90
4429;DHT22;2227;47.810;8.810;2023-02-03T06:14:49;5.70;99.90
4429;DHT22;2227;47.810;8.810;2023-02-03T06:17:16;5.50;99.90
4429;DHT22;2227;47.810;8.810;2023-02-03T06:19:43;5.30;99.90
4429;DHT22;2227;47.810;8.810;2023-02-03T06:22:09;5.20;99.90
4429;DHT22;2227;47.810;8.810;2023-02-03T06:24:36;5.10;99.90
4429;DHT22;2227;47.810;8.810;2023-02-03T06:27:02;5.30;99.90
4429;DHT22;2227;47.810;8.810;2023-02-03T06:29:29;5.50;99.90
4429;DHT22;2227;47.810;8.810;2023-02-03T06:31:56;5.60;99.90
4429;DHT22;2227;47.810;8.810;2023-02-03T06:34:23;5.60;99.90
4429;DHT22;2227;47.810;8.810;2023-02-03T06:36:49;5.50;99.90
4429;DHT22;2227;47.810;8.810;2023-02-03T06:39:16;5.30;99.90
4429;DHT22;2227;47.810;8.810;2023-02-03T06:41:43;5.20;99.90
4429;DHT22;2227;47.810;8.810;2023-02-03T06:44:09;5.00;99.90
4429;DHT22;2227;47.810;8.810;2023-02-03T06:46:36;5.20;99.90
4429;DHT22;2227;47.810;8.810;2023-02-03T06:49:03;5.30;99.90
4429;DHT22;2227;47.810;8.810;2023-02-03T06:51:29;5.40;99.90
4429;DHT22;2227;47.810;8.810;2023-02-03T06:53:57;5.20;99.90
4429;DHT22;2227;47.810;8.810;2023-02-03T06:56:24;5.10;99.90
4429;DHT22;2227;47.810;8.810;2023-02-03T06:58:51;5.20;99.90
4429;DHT22;2227;47.810;8.810;2023-02-03T07:01:17;5.20;99.90
4429;DHT22;2227;47.810;8.810;2023-02-03T07:03:44;5.30;99.90
4429;DHT22;2227;47.810;8.810;2023-02-03T07:06:13;5.20;99.90
4429;DHT22;2227;47.810;8.810;2023-02-03T07:08:40;5.10;99.90
4429;DHT22;2227;47.810;8.810;2023-02-03T07:11:07;5.20;99.90
4429;DHT22;2227;47.810;8.810;2023-02-03T07:13:33;5.20;99.90
4429;DHT22;2227;47.810;8.810;2023-02-03T07:16:00;5.30;99.90
4429;DHT22;2227;47.810;8.810;2023-02-03T07:18:27;5.40;99.90
4429;DHT22;2227;47.810;8.810;2023-02-03T07:21:14;5.50;99.90
4429;DHT22;2227;47.810;8.810;2023-02-03T07:23:41;5.40;99.90
4429;DHT22;2227;47.810;8.810;2023-02-03T07:26:09;5.40;99.90
4429;DHT22;2227;47.810;8.810;2023-02-03T07:28:36;5.50;99.90
4429;DHT22;2227;47.810;8.810;2023-02-03T07:31:03;5.50;99.90
4429;DHT22;2227;47.810;8.810;2023-02-03T07:33:30;5.50;99.90
4429;DHT22;2227;47.810;8.810;2023-02-03T07:35:58;5.50;99.90
4429;DHT22;2227;47.810;8.810;2023-02-03T07:38:26;5.70;99.90
4429;DHT22;2227;47.810;8.810;2023-02-03T07:40:54;5.80;99.90
4429;DHT22;2227;47.810;8.810;2023-02-03T07:43:21;5.70;99.90
4429;DHT22;2227;47.810;8.810;2023-02-03T07:45:48;5.70;99.90
4429;DHT22;2227;47.810;8.810;2023-02-03T07:48:14;5.80;99.90
4429;DHT22;2227;47.810;8.810;2023-02-03T07:50:41;5.80;99.90
4429;DHT22;2227;47.810;8.810;2023-02-03T07:53:08;6.00;99.90
4429;DHT22;2227;47.810;8.810;2023-02-03T07:55:37;6.00;99.90
4429;DHT22;2227;47.810;8.810;2023-02-03T07:58:03;6.10;99.90
4429;DHT22;2227;47.810;8.810;2023-02-03T08:00:30;6.20;99.90
4429;DHT22;2227;47.810;8.810;2023-02-03T08:02:57;6.30;99.90
4429;DHT22;2227;47.810;8.810;2023-02-03T08:05:24;6.80;99.90
4429;DHT22;2227;47.810;8.810;2023-02-03T08:07:51;7.40;99.90
4429;DHT22;2227;47.810;8.810;2023-02-03T08:10:18;7.20;99.90
4429;DHT22;2227;47.810;8.810;2023-02-03T08:12:44;7.00;99.90
4429;DHT22;2227;47.810;8.810;2023-02-03T08:15:12;7.00;99.90
4429;DHT22;2227;47.810;8.810;2023-02-03T08:17:39;7.10;99.90
4429;DHT22;2227;47.810;8.810;2023-02-03T08:20:08;6.80;99.90
4429;DHT22;2227;47.810;8.810;2023-02-03T08:22:35;6.70;99.90
4429;DHT22;2227;47.810;8.810;2023-02-03T08:25:01;6.70;99.90
4429;DHT22;2227;47.810;8.810;2023-02-03T08:27:30;7.00;99.90
4429;DHT22;2227;47.810;8.810;2023-02-03T08:29:57;7.20;99.90
4429;DHT22;2227;47.810;8.810;2023-02-03T08:32:24;7.50;99.90
4429;DHT22;2227;47.810;8.810;2023-02-03T08:34:52;7.60;99.90
4429;DHT22;2227;47.810;8.810;2023-02-03T08:37:20;8.00;99.90
4429;DHT22;2227;47.810;8.810;2023-02-03T08:39:50;8.30;99.90
4429;DHT22;2227;47.810;8.810;2023-02-03T08:42:18;8.10;99.90
4429;DHT22;2227;47.810;8.810;2023-02-03T08:44:44;7.80;99.90
4429;DHT22;2227;47.810;8.810;2023-02-03T08:47:11;7.40;99.90
4429;DHT22;2227;47.810;8.810;2023-02-03T08:49:38;7.00;99.90
4429;DHT22;2227;47.810;8.810;2023-02-03T08:52:07;6.80;99.90
4429;DHT22;2227;47.810;8.810;2023-02-03T08:54:34;7.00;99.90
4429;DHT22;2227;47.810;8.810;2023-02-03T08:57:01;7.10;99.90
4429;DHT22;2227;47.810;8.810;2023-02-03T08:59:27;7.00;99.90
4429;DHT22;2227;47.810;8.810;2023-02-03T09:01:55;6.80;99.90
4429;DHT22;2227;47.810;8.810;2023-02-03T09:04:22;6.70;99.90
4429;DHT22;2227;47.810;8.810;2023-02-03T09:06:51;6.80;99.90
4429;DHT22;2227;47.810;8.810;2023-02-03T09:09:20;7.00;99.90
4429;DHT22;2227;47.810;8.810;2023-02-03T09:11:48;7.40;99.90
4429;DHT22;2227;47.810;8.810;2023-02-03T09:14:14;7.30;99.90
4429;DHT22;2227;47.810;8.810;2023-02-03T09:16:41;7.40;99.90
4429;DHT22;2227;47.810;8.810;2023-02-03T09:19:07;7.60;99.90
4429;DHT22;2227;47.810;8.810;2023-02-03T09:21:34;8.30;99.90
4429;DHT22;2227;47.810;8.810;2023-02-03T09:24:07;8.70;99.90
4429;DHT22;2227;47.810;8.810;2023-02-03T09:26:34;8.80;99.90
4429;DHT22;2227;47.810;8.810;2023-02-03T09:29:01;8.60;99.90
4429;DHT22;2227;47.810;8.810;2023-02-03T09:31:27;8.20;99.90
4429;DHT22;2227;47.810;8.810;2023-02-03T09:33:54;7.60;99.90
4429;DHT22;2227;47.810;8.810;2023-02-03T09:36:21;7.60;99.90
4429;DHT22;2227;47.810;8.810;2023-02-03T09:38:47;7.60;99.90
4429;DHT22;2227;47.810;8.810;2023-02-03T09:41:17;7.30;99.90
4429;DHT22;2227;47.810;8.810;2023-02-03T09:46:39;7.30;99.90
4429;DHT22;2227;47.810;8.810;2023-02-03T09:51:53;7.20;99.90
4429;DHT22;2227;47.810;8.810;2023-02-03T09:54:35;7.10;99.90
4429;DHT22;2227;47.810;8.810;2023-02-03T09:57:06;7.20;99.90
4429;DHT22;2227;47.810;8.810;2023-02-03T09:59:39;7.00;99.90
4429;DHT22;2227;47.810;8.810;2023-02-03T10:05:11;7.20;99.90
4429;DHT22;2227;47.810;8.810;2023-02-03T10:08:01;7.50;99.90
4429;DHT22;2227;47.810;8.810;2023-02-03T10:16:55;8.00;99.90
4429;DHT22;2227;47.810;8.810;2023-02-03T10:22:19;10.80;99.90
4429;DHT22;2227;47.810;8.810;2023-02-03T10:24:55;10.90;99.90
4429;DHT22;2227;47.810;8.810;2023-02-03T10:27:24;11.50;99.90
4429;DHT22;2227;47.810;8.810;2023-02-03T10:30:03;12.20;99.90
4429;DHT22;2227;47.810;8.810;2023-02-03T10:32:31;12.30;99.90
4429;DHT22;2227;47.810;8.810;2023-02-03T10:35:01;11.70;99.90
4429;DHT22;2227;47.810;8.810;2023-02-03T10:37:36;11.00;99.90
4429;DHT22;2227;47.810;8.810;2023-02-03T10:40:04;11.10;99.90
4429;DHT22;2227;47.810;8.810;2023-02-03T10:42:31;11.10;99.90
4429;DHT22;2227;47.810;8.810;2023-02-03T10:45:19;11.20;99.90
4429;DHT22;2227;47.810;8.810;2023-02-03T10:47:54;10.70;99.90
4429;DHT22;2227;47.810;8.810;2023-02-03T10:50:23;9.80;99.90
4429;DHT22;2227;47.810;8.810;2023-02-03T10:56:01;10.30;99.90
4429;DHT22;2227;47.810;8.810;2023-02-03T10:58:30;10.60;99.90
4429;DHT22;2227;47.810;8.810;2023-02-03T11:01:09;10.80;99.90
4429;DHT22;2227;47.810;8.810;2023-02-03T11:03:42;10.90;99.90
4429;DHT22;2227;47.810;8.810;2023-02-03T11:06:15;10.70;99.90
4429;DHT22;2227;47.810;8.810;2023-02-03T11:08:45;10.50;99.90
4429;DHT22;2227;47.810;8.810;2023-02-03T11:11:27;10.30;99.90
4429;DHT22;2227;47.810;8.810;2023-02-03T11:14:09;10.20;99.90
4429;DHT22;2227;47.810;8.810;2023-02-03T11:16:36;9.80;99.90
4429;DHT22;2227;47.810;8.810;2023-02-03T11:19:25;9.60;99.90
4429;DHT22;2227;47.810;8.810;2023-02-03T11:21:53;9.50;99.90
4429;DHT22;2227;47.810;8.810;2023-02-03T11:24:31;10.10;99.90
4429;DHT22;2227;47.810;8.810;2023-02-03T11:27:04;10.30;99.90
4429;DHT22;2227;47.810;8.810;2023-02-03T11:29:34;10.60;99.90
4429;DHT22;2227;47.810;8.810;2023-02-03T11:32:05;11.10;99.90
4429;DHT22;2227;47.810;8.810;2023-02-03T11:34:46;11.90;99.90
4429;DHT22;2227;47.810;8.810;2023-02-03T11:37:30;11.50;99.90
4429;DHT22;2227;47.810;8.810;2023-02-03T11:45:36;12.40;99.90
4429;DHT22;2227;47.810;8.810;2023-02-03T12:21:45;10.80;99.90
4429;DHT22;2227;47.810;8.810;2023-02-03T12:29:31;11.60;99.90
4429;DHT22;2227;47.810;8.810;2023-02-03T12:40:49;9.70;99.90
4429;DHT22;2227;47.810;8.810;2023-02-03T12:43:26;9.40;99.90
4429;DHT22;2227;47.810;8.810;2023-02-03T12:46:00;9.30;99.90
4429;DHT22;2227;47.810;8.810;2023-02-03T12:48:37;9.20;99.90
4429;DHT22;2227;47.810;8.810;2023-02-03T12:51:11;9.10;99.90
4429;DHT22;2227;47.810;8.810;2023-02-03T12:53:44;9.00;99.90
4429;DHT22;2227;47.810;8.810;2023-02-03T12:56:26;9.20;99.90
4429;DHT22;2227;47.810;8.810;2023-02-03T12:59:03;9.10;99.90
4429;DHT22;2227;47.810;8.810;2023-02-03T13:01:37;9.20;99.90
4429;DHT22;2227;47.810;8.810;2023-02-03T13:04:23;8.90;99.90
4429;DHT22;2227;47.810;8.810;2023-02-03T13:07:15;9.00;99.90
4429;DHT22;2227;47.810;8.810;2023-02-03T13:15:19;9.00;99.90
4429;DHT22;2227;47.810;8.810;2023-02-03T13:17:51;8.70;99.90
4429;DHT22;2227;47.810;8.810;2023-02-03T13:20:25;8.70;99.90
4429;DHT22;2227;47.810;8.810;2023-02-03T13:22:54;8.70;99.90
4429;DHT22;2227;47.810;8.810;2023-02-03T13:25:30;8.60;99.90
4429;DHT22;2227;47.810;8.810;2023-02-03T13:44:36;8.50;99.90
4429;DHT22;2227;47.810;8.810;2023-02-03T13:47:05;8.40;99.90
4429;DHT22;2227;47.810;8.810;2023-02-03T13:49:33;8.40;99.90
4429;DHT22;2227;47.810;8.810;2023-02-03T13:52:01;8.50;99.90
4429;DHT22;2227;47.810;8.810;2023-02-03T13:54:42;8.40;99.90
4429;DHT22;2227;47.810;8.810;2023-02-03T13:57:33;8.50;99.90
4429;DHT22;2227;47.810;8.810;2023-02-03T14:00:04;8.50;99.90
4429;DHT22;2227;47.810;8.810;2023-02-03T14:02:43;8.40;99.90
4429;DHT22;2227;47.810;8.810;2023-02-03T14:16:49;8.30;99.90
4429;DHT22;2227;47.810;8.810;2023-02-03T14:22:05;8.50;99.90
4429;DHT22;2227;47.810;8.810;2023-02-03T14:24:35;8.70;99.90
4429;DHT22;2227;47.810;8.810;2023-02-03T14:27:15;8.80;99.90
4429;DHT22;2227;47.810;8.810;2023-02-03T14:29:42;8.50;99.90
4429;DHT22;2227;47.810;8.810;2023-02-03T14:32:10;8.50;99.90
4429;DHT22;2227;47.810;8.810;2023-02-03T14:34:47;8.50;99.90
4429;DHT22;2227;47.810;8.810;2023-02-03T14:37:18;8.50;99.90
4429;DHT22;2227;47.810;8.810;2023-02-03T14:51:19;8.60;99.90
4429;DHT22;2227;47.810;8.810;2023-02-03T14:54:07;8.40;99.90
4429;DHT22;2227;47.810;8.810;2023-02-03T14:59:54;8.10;99.90
4429;DHT22;2227;47.810;8.810;2023-02-03T15:02:23;8.10;99.90
4429;DHT22;2227;47.810;8.810;2023-02-03T15:07:42;8.00;99.90
4429;DHT22;2227;47.810;8.810;2023-02-03T15:10:26;8.00;99.90
4429;DHT22;2227;47.810;8.810;2023-02-03T15:12:56;8.00;99.90
4429;DHT22;2227;47.810;8.810;2023-02-03T15:15:25;7.90;99.90
4429;DHT22;2227;47.810;8.810;2023-02-03T15:17:58;8.10;99.90
4429;DHT22;2227;47.810;8.810;2023-02-03T15:20:39;7.90;99.90
4429;DHT22;2227;47.810;8.810;2023-02-03T15:23:21;7.70;99.90
4429;DHT22;2227;47.810;8.810;2023-02-03T15:25:59;7.60;99.90
4429;DHT22;2227;47.810;8.810;2023-02-03T15:28:28;7.70;99.90
4429;DHT22;2227;47.810;8.810;2023-02-03T15:31:04;7.90;99.90
4429;DHT22;2227;47.810;8.810;2023-02-03T15:33:33;7.90;99.90
4429;DHT22;2227;47.810;8.810;2023-02-03T15:36:06;7.90;99.90
4429;DHT22;2227;47.810;8.810;2023-02-03T15:38:43;7.70;99.90
4429;DHT22;2227;47.810;8.810;2023-02-03T15:41:22;7.60;99.90
4429;DHT22;2227;47.810;8.810;2023-02-03T15:43:55;7.70;99.90
4429;DHT22;2227;47.810;8.810;2023-02-03T15:46:46;7.60;99.90
4429;DHT22;2227;47.810;8.810;2023-02-03T15:49:23;7.60;99.90
4429;DHT22;2227;47.810;8.810;2023-02-03T15:57:01;7.60;99.90
4429;DHT22;2227;47.810;8.810;2023-02-03T16:00:37;7.60;99.90
4429;DHT22;2227;47.810;8.810;2023-02-03T16:02:41;7.60;99.90
4429;DHT22;2227;47.810;8.810;2023-02-03T16:05:29;7.50;99.90
4429;DHT22;2227;47.810;8.810;2023-02-03T16:08:24;7.50;99.90
4429;DHT22;2227;47.810;8.810;2023-02-03T16:10:51;7.50;99.90
4429;DHT22;2227;47.810;8.810;2023-02-03T16:13:26;7.40;99.90
4429;DHT22;2227;47.810;8.810;2023-02-03T16:16:17;7.30;99.90
4429;DHT22;2227;47.810;8.810;2023-02-03T16:18:55;7.30;99.90
4429;DHT22;2227;47.810;8.810;2023-02-03T16:21:36;7.30;99.90
4429;DHT22;2227;47.810;8.810;2023-02-03T16:24:04;7.30;99.90
4429;DHT22;2227;47.810;8.810;2023-02-03T16:26:32;7.30;99.90
4429;DHT22;2227;47.810;8.810;2023-02-03T16:31:53;7.20;99.90
4429;DHT22;2227;47.810;8.810;2023-02-03T16:34:39;7.10;99.90
4429;DHT22;2227;47.810;8.810;2023-02-03T16:37:26;7.10;99.90
4429;DHT22;2227;47.810;8.810;2023-02-03T16:40:16;7.00;99.90
4429;DHT22;2227;47.810;8.810;2023-02-03T16:43:02;7.00;99.90
4429;DHT22;2227;47.810;8.810;2023-02-03T16:45:55;7.00;99.90
4429;DHT22;2227;47.810;8.810;2023-02-03T16:48:41;7.10;99.90
4429;DHT22;2227;47.810;8.810;2023-02-03T16:51:33;7.00;99.90
4429;DHT22;2227;47.810;8.810;2023-02-03T16:54:00;6.90;99.90
4429;DHT22;2227;47.810;8.810;2023-02-03T16:56:26;6.90;99.90
4429;DHT22;2227;47.810;8.810;2023-02-03T16:58:53;6.80;99.90
4429;DHT22;2227;47.810;8.810;2023-02-03T17:01:20;6.80;99.90
4429;DHT22;2227;47.810;8.810;2023-02-03T17:03:47;6.70;99.90
4429;DHT22;2227;47.810;8.810;2023-02-03T17:06:13;6.80;99.90
4429;DHT22;2227;47.810;8.810;2023-02-03T17:08:41;6.80;99.90
4429;DHT22;2227;47.810;8.810;2023-02-03T17:11:19;6.80;99.90
4429;DHT22;2227;47.810;8.810;2023-02-03T17:13:47;6.80;99.90
4429;DHT22;2227;47.810;8.810;2023-02-03T17:16:16;6.80;99.90
4429;DHT22;2227;47.810;8.810;2023-02-03T17:18:44;6.90;99.90
4429;DHT22;2227;47.810;8.810;2023-02-03T17:21:34;6.90;99.90
4429;DHT22;2227;47.810;8.810;2023-02-03T17:24:00;6.80;99.90
4429;DHT22;2227;47.810;8.810;2023-02-03T17:26:28;7.00;99.90
4429;DHT22;2227;47.810;8.810;2023-02-03T17:28:54;7.00;99.90
4429;DHT22;2227;47.810;8.810;2023-02-03T17:31:21;7.00;99.90
4429;DHT22;2227;47.810;8.810;2023-02-03T17:33:51;6.90;99.90
4429;DHT22;2227;47.810;8.810;2023-02-03T17:36:19;7.00;99.90
4429;DHT22;2227;47.810;8.810;2023-02-03T17:38:52;7.10;99.90
4429;DHT22;2227;47.810;8.810;2023-02-03T17:41:38;7.00;99.90
4429;DHT22;2227;47.810;8.810;2023-02-03T17:44:23;7.10;99.90
4429;DHT22;2227;47.810;8.810;2023-02-03T17:47:07;7.00;99.90
4429;DHT22;2227;47.810;8.810;2023-02-03T17:49:52;7.00;99.90
4429;DHT22;2227;47.810;8.810;2023-02-03T17:52:36;7.10;99.90
4429;DHT22;2227;47.810;8.810;2023-02-03T17:55:20;7.10;99.90
4429;DHT22;2227;47.810;8.810;2023-02-03T17:57:47;7.10;99.90
4429;DHT22;2227;47.810;8.810;2023-02-03T18:00:14;7.10;99.90
4429;DHT22;2227;47.810;8.810;2023-02-03T18:02:41;7.20;99.90
4429;DHT22;2227;47.810;8.810;2023-02-03T18:05:08;7.10;99.90
4429;DHT22;2227;47.810;8.810;2023-02-03T18:07:35;7.10;99.90
4429;DHT22;2227;47.810;8.810;2023-02-03T18:10:02;7.10;99.90
4429;DHT22;2227;47.810;8.810;2023-02-03T18:12:30;7.20;99.90
4429;DHT22;2227;47.810;8.810;2023-02-03T18:14:56;7.30;99.90
4429;DHT22;2227;47.810;8.810;2023-02-03T18:17:23;7.20;99.90
4429;DHT22;2227;47.810;8.810;2023-02-03T18:19:50;7.10;99.90
4429;DHT22;2227;47.810;8.810;2023-02-03T18:22:21;7.10;99.90
4429;DHT22;2227;47.810;8.810;2023-02-03T18:24:48;7.10;99.90
4429;DHT22;2227;47.810;8.810;2023-02-03T18:27:18;7.10;99.90
4429;DHT22;2227;47.810;8.810;2023-02-03T18:29:46;7.00;99.90
4429;DHT22;2227;47.810;8.810;2023-02-03T18:32:14;7.10;99.90
4429;DHT22;2227;47.810;8.810;2023-02-03T18:34:41;7.00;99.90
4429;DHT22;2227;47.810;8.810;2023-02-03T18:37:08;6.90;99.90
4429;DHT22;2227;47.810;8.810;2023-02-03T18:39:35;6.90;99.90
4429;DHT22;2227;47.810;8.810;2023-02-03T18:42:02;6.80;99.90
4429;DHT22;2227;47.810;8.810;2023-02-03T18:44:29;6.90;99.90
4429;DHT22;2227;47.810;8.810;2023-02-03T18:46:57;6.80;99.90
4429;DHT22;2227;47.810;8.810;2023-02-03T18:49:34;6.80;99.90
4429;DHT22;2227;47.810;8.810;2023-02-03T18:52:01;6.90;99.90
4429;DHT22;2227;47.810;8.810;2023-02-03T18:54:27;6.90;99.90
4429;DHT22;2227;47.810;8.810;2023-02-03T18:56:56;6.80;99.90
4429;DHT22;2227;47.810;8.810;2023-02-03T18:59:24;6.90;99.90
4429;DHT22;2227;47.810;8.810;2023-02-03T19:01:51;6.90;99.90
4429;DHT22;2227;47.810;8.810;2023-02-03T19:04:18;6.90;99.90
4429;DHT22;2227;47.810;8.810;2023-02-03T19:06:45;6.70;99.90
4429;DHT22;2227;47.810;8.810;2023-02-03T19:09:14;6.70;99.90
4429;DHT22;2227;47.810;8.810;2023-02-03T19:11:43;6.70;99.90
4429;DHT22;2227;47.810;8.810;2023-02-03T19:14:11;6.80;99.90
4429;DHT22;2227;47.810;8.810;2023-02-03T19:16:39;6.90;99.90
4429;DHT22;2227;47.810;8.810;2023-02-03T19:19:05;6.90;99.90
4429;DHT22;2227;47.810;8.810;2023-02-03T19:21:32;6.80;99.90
4429;DHT22;2227;47.810;8.810;2023-02-03T19:23:59;6.90;99.90
4429;DHT22;2227;47.810;8.810;2023-02-03T19:26:26;6.80;99.90
4429;DHT22;2227;47.810;8.810;2023-02-03T19:28:53;6.70;99.90
4429;DHT22;2227;47.810;8.810;2023-02-03T19:31:21;6.70;99.90
4429;DHT22;2227;47.810;8.810;2023-02-03T19:33:48;6.70;99.90
4429;DHT22;2227;47.810;8.810;2023-02-03T19:36:15;6.80;99.90
4429;DHT22;2227;47.810;8.810;2023-02-03T19:38:42;6.80;99.90
4429;DHT22;2227;47.810;8.810;2023-02-03T19:41:09;6.60;99.90
4429;DHT22;2227;47.810;8.810;2023-02-03T19:43:37;6.60;99.90
4429;DHT22;2227;47.810;8.810;2023-02-03T19:46:05;6.60;99.90
4429;DHT22;2227;47.810;8.810;2023-02-03T19:48:32;6.70;99.90
4429;DHT22;2227;47.810;8.810;2023-02-03T19:50:59;6.70;99.90
4429;DHT22;2227;47.810;8.810;2023-02-03T19:53:25;6.70;99.90
4429;DHT22;2227;47.810;8.810;2023-02-03T19:55:52;6.70;99.90
4429;DHT22;2227;47.810;8.810;2023-02-03T19:58:19;6.80;99.90
4429;DHT22;2227;47.810;8.810;2023-02-03T20:00:46;6.80;99.90
4429;DHT22;2227;47.810;8.810;2023-02-03T20:03:13;6.80;99.90
4429;DHT22;2227;47.810;8.810;2023-02-03T20:05:40;6.70;99.90
4429;DHT22;2227;47.810;8.810;2023-02-03T20:08:06;6.80;99.90
4429;DHT22;2227;47.810;8.810;2023-02-03T20:10:39;6.80;99.90
4429;DHT22;2227;47.810;8.810;2023-02-03T20:13:06;6.80;99.90
4429;DHT22;2227;47.810;8.810;2023-02-03T20:15:33;6.80;99.90
4429;DHT22;2227;47.810;8.810;2023-02-03T20:17:59;6.70;99.90
4429;DHT22;2227;47.810;8.810;2023-02-03T20:20:26;7.00;99.90
4429;DHT22;2227;47.810;8.810;2023-02-03T20:22:53;6.80;99.90
4429;DHT22;2227;47.810;8.810;2023-02-03T20:25:20;7.00;99.90
4429;DHT22;2227;47.810;8.810;2023-02-03T20:27:47;6.90;99.90
4429;DHT22;2227;47.810;8.810;2023-02-03T20:30:14;6.90;99.90
4429;DHT22;2227;47.810;8.810;2023-02-03T20:32:41;6.90;99.90
4429;DHT22;2227;47.810;8.810;2023-02-03T20:35:08;6.90;99.90
4429;DHT22;2227;47.810;8.810;2023-02-03T20:37:35;6.90;99.90
4429;DHT22;2227;47.810;8.810;2023-02-03T20:40:08;6.80;99.90
4429;DHT22;2227;47.810;8.810;2023-02-03T20:42:38;6.70;99.90
4429;DHT22;2227;47.810;8.810;2023-02-03T20:45:11;6.70;99.90
4429;DHT22;2227;47.810;8.810;2023-02-03T20:47:38;6.80;99.90
4429;DHT22;2227;47.810;8.810;2023-02-03T20:50:17;6.70;99.90
4429;DHT22;2227;47.810;8.810;2023-02-03T20:52:45;6.70;99.90
4429;DHT22;2227;47.810;8.810;2023-02-03T20:55:13;6.70;99.90
4429;DHT22;2227;47.810;8.810;2023-02-03T20:57:41;6.80;99.90
4429;DHT22;2227;47.810;8.810;2023-02-03T21:00:27;6.70;99.90
4429;DHT22;2227;47.810;8.810;2023-02-03T21:02:54;6.60;99.90
4429;DHT22;2227;47.810;8.810;2023-02-03T21:05:43;6.60;99.90
4429;DHT22;2227;47.810;8.810;2023-02-03T21:08:18;6.60;99.90
4429;DHT22;2227;47.810;8.810;2023-02-03T21:10:46;6.70;99.90
4429;DHT22;2227;47.810;8.810;2023-02-03T21:16:01;6.60;99.90
4429;DHT22;2227;47.810;8.810;2023-02-03T21:18:49;6.60;99.90
4429;DHT22;2227;47.810;8.810;2023-02-03T21:21:19;6.50;99.90
4429;DHT22;2227;47.810;8.810;2023-02-03T21:23:51;6.60;99.90
4429;DHT22;2227;47.810;8.810;2023-02-03T21:26:29;6.60;99.90
4429;DHT22;2227;47.810;8.810;2023-02-03T21:28:59;6.60;99.90
4429;DHT22;2227;47.810;8.810;2023-02-03T21:31:28;6.70;99.90
4429;DHT22;2227;47.810;8.810;2023-02-03T21:33:59;6.80;99.90
4429;DHT22;2227;47.810;8.810;2023-02-03T21:36:31;6.60;99.90
4429;DHT22;2227;47.810;8.810;2023-02-03T21:39:00;6.60;99.90
4429;DHT22;2227;47.810;8.810;2023-02-03T21:41:33;6.70;99.90
4429;DHT22;2227;47.810;8.810;2023-02-03T21:44:00;6.70;99.90
4429;DHT22;2227;47.810;8.810;2023-02-03T21:46:32;6.70;99.90
4429;DHT22;2227;47.810;8.810;2023-02-03T21:49:00;6.60;99.90
4429;DHT22;2227;47.810;8.810;2023-02-03T21:51:33;6.60;99.90
4429;DHT22;2227;47.810;8.810;2023-02-03T21:54:02;6.50;99.90
4429;DHT22;2227;47.810;8.810;2023-02-03T21:56:40;6.60;99.90
4429;DHT22;2227;47.810;8.810;2023-02-03T21:59:22;6.50;99.90
4429;DHT22;2227;47.810;8.810;2023-02-03T22:01:51;6.50;99.90
4429;DHT22;2227;47.810;8.810;2023-02-03T22:04:19;6.50;99.90
4429;DHT22;2227;47.810;8.810;2023-02-03T22:06:48;6.60;99.90
4429;DHT22;2227;47.810;8.810;2023-02-03T22:09:17;6.50;99.90
4429;DHT22;2227;47.810;8.810;2023-02-03T22:11:44;6.50;99.90
4429;DHT22;2227;47.810;8.810;2023-02-03T22:14:18;6.50;99.90
4429;DHT22;2227;47.810;8.810;2023-02-03T22:16:46;6.60;99.90
4429;DHT22;2227;47.810;8.810;2023-02-03T22:19:13;6.60;99.90
4429;DHT22;2227;47.810;8.810;2023-02-03T22:21:42;6.60;99.90
4429;DHT22;2227;47.810;8.810;2023-02-03T22:24:10;6.70;99.90
4429;DHT22;2227;47.810;8.810;2023-02-03T22:26:37;6.70;99.90
4429;DHT22;2227;47.810;8.810;2023-02-03T22:29:03;6.70;99.90
4429;DHT22;2227;47.810;8.810;2023-02-03T22:31:31;6.60;99.90
4429;DHT22;2227;47.810;8.810;2023-02-03T22:33:58;6.70;99.90
4429;DHT22;2227;47.810;8.810;2023-02-03T22:36:25;6.70;99.90
4429;DHT22;2227;47.810;8.810;2023-02-03T22:38:52;6.70;99.90
4429;DHT22;2227;47.810;8.810;2023-02-03T22:41:18;6.60;99.90
4429;DHT22;2227;47.810;8.810;2023-02-03T22:43:46;6.60;99.90
4429;DHT22;2227;47.810;8.810;2023-02-03T22:46:13;6.70;99.90
4429;DHT22;2227;47.810;8.810;2023-02-03T22:48:40;6.50;99.90
4429;DHT22;2227;47.810;8.810;2023-02-03T22:51:06;6.60;99.90
4429;DHT22;2227;47.810;8.810;2023-02-03T22:53:33;6.70;99.90
4429;DHT22;2227;47.810;8.810;2023-02-03T22:56:00;6.70;99.90
4429;DHT22;2227;47.810;8.810;2023-02-03T22:58:27;6.60;99.90
4429;DHT22;2227;47.810;8.810;2023-02-03T23:00:53;6.70;99.90
4429;DHT22;2227;47.810;8.810;2023-02-03T23:03:20;6.80;99.90
4429;DHT22;2227;47.810;8.810;2023-02-03T23:05:47;6.70;99.90
4429;DHT22;2227;47.810;8.810;2023-02-03T23:08:14;6.60;99.90
4429;DHT22;2227;47.810;8.810;2023-02-03T23:10:40;6.80;99.90
4429;DHT22;2227;47.810;8.810;2023-02-03T23:13:07;6.90;99.90
4429;DHT22;2227;47.810;8.810;2023-02-03T23:15:34;6.70;99.90
4429;DHT22;2227;47.810;8.810;2023-02-03T23:18:01;6.80;99.90
4429;DHT22;2227;47.810;8.810;2023-02-03T23:20:27;6.80;99.90
4429;DHT22;2227;47.810;8.810;2023-02-03T23:22:55;7.10;99.90
4429;DHT22;2227;47.810;8.810;2023-02-03T23:25:21;6.80;99.90
4429;DHT22;2227;47.810;8.810;2023-02-03T23:27:48;6.70;99.90
4429;DHT22;2227;47.810;8.810;2023-02-03T23:30:15;6.60;99.90
4429;DHT22;2227;47.810;8.810;2023-02-03T23:32:42;6.60;99.90
4429;DHT22;2227;47.810;8.810;2023-02-03T23:35:09;6.50;99.90
4429;DHT22;2227;47.810;8.810;2023-02-03T23:37:55;6.60;99.90
4429;DHT22;2227;47.810;8.810;2023-02-03T23:40:21;6.60;99.90
4429;DHT22;2227;47.810;8.810;2023-02-03T23:42:48;6.50;99.90
4429;DHT22;2227;47.810;8.810;2023-02-03T23:45:15;6.50;99.90